createdAt,value
2022-10-17T00:00:50.497Z,2.73
2022-10-17T00:01:51.966Z,2.57
2022-10-17T00:02:57.076Z,2.83
2022-10-17T00:03:58.711Z,2.50
2022-10-17T00:05:00.311Z,2.57
2022-10-17T00:06:07.317Z,2.60
2022-10-17T00:07:08.960Z,2.60
2022-10-17T00:08:12.434Z,2.73
2022-10-17T00:09:13.839Z,3.03
2022-10-17T00:10:15.309Z,3.20
2022-10-17T00:11:21.060Z,2.50
2022-10-17T00:12:22.436Z,2.80
2022-10-17T00:13:24.628Z,2.97
2022-10-17T00:14:26.135Z,2.90
2022-10-17T00:15:27.504Z,2.50
2022-10-17T00:16:32.749Z,2.80
2022-10-17T00:17:34.588Z,2.70
2022-10-17T00:18:36.071Z,2.80
2022-10-17T00:19:37.546Z,2.70
2022-10-17T00:20:38.930Z,2.70
2022-10-17T00:21:40.288Z,3.03
2022-10-17T00:22:41.742Z,2.70
2022-10-17T00:23:43.113Z,2.70
2022-10-17T00:24:44.661Z,2.50
2022-10-17T00:25:46.084Z,2.70
2022-10-17T00:26:47.590Z,2.60
2022-10-17T00:27:49.001Z,2.63
2022-10-17T00:28:51.993Z,3.00
2022-10-17T00:29:53.691Z,2.93
2022-10-17T00:31:03.886Z,2.83
2022-10-17T00:32:06.050Z,2.70
2022-10-17T00:33:07.584Z,2.67
2022-10-17T00:34:09.053Z,2.60
2022-10-17T00:35:10.495Z,2.90
2022-10-17T00:36:17.221Z,2.73
2022-10-17T00:37:18.644Z,2.50
2022-10-17T00:38:20.012Z,2.43
2022-10-17T00:39:21.890Z,2.90
2022-10-17T00:40:23.620Z,2.90
2022-10-17T00:41:29.279Z,3.03
2022-10-17T00:42:31.001Z,2.77
2022-10-17T00:43:59.014Z,2.90
2022-10-17T00:45:26.438Z,2.57
2022-10-17T00:46:31.087Z,3.00
2022-10-17T00:47:35.451Z,2.80
2022-10-17T00:48:36.851Z,2.60
2022-10-17T00:49:39.650Z,2.80
2022-10-17T00:50:44.523Z,2.70
2022-10-17T00:52:02.908Z,2.80
2022-10-17T00:53:06.352Z,2.40
2022-10-17T00:54:09.585Z,2.60
2022-10-17T00:55:16.625Z,2.60
2022-10-17T00:56:20.096Z,2.80
2022-10-17T00:57:21.770Z,2.83
2022-10-17T00:58:25.007Z,2.50
2022-10-17T00:59:26.924Z,2.70
2022-10-17T01:00:28.474Z,2.70
2022-10-17T01:01:30.096Z,2.80
2022-10-17T01:02:40.021Z,2.90
2022-10-17T01:03:41.626Z,2.60
2022-10-17T01:04:46.399Z,2.90
2022-10-17T01:05:47.836Z,2.73
2022-10-17T01:06:49.192Z,2.80
2022-10-17T01:07:53.316Z,2.93
2022-10-17T01:08:54.995Z,2.70
2022-10-17T01:09:56.903Z,2.60
2022-10-17T01:11:22.014Z,2.60
2022-10-17T01:12:29.088Z,3.00
2022-10-17T01:13:46.583Z,2.80
2022-10-17T01:15:17.581Z,2.83
2022-10-17T01:16:44.587Z,2.90
2022-10-17T01:18:04.718Z,2.87
2022-10-17T01:19:44.047Z,2.60
2022-10-17T01:21:00.350Z,3.00
2022-10-17T01:22:34.800Z,3.10
2022-10-17T01:24:18.239Z,3.13
2022-10-17T01:25:57.297Z,3.40
2022-10-17T01:27:25.954Z,2.87
2022-10-17T01:28:45.850Z,2.90
2022-10-17T01:29:47.512Z,2.90
2022-10-17T01:31:07.347Z,3.00
2022-10-17T01:32:18.391Z,2.70
2022-10-17T01:33:44.004Z,3.10
2022-10-17T01:35:19.450Z,3.03
2022-10-17T01:36:29.316Z,2.80
2022-10-17T01:37:45.164Z,2.80
2022-10-17T01:38:51.861Z,2.70
2022-10-17T01:40:08.418Z,2.97
2022-10-17T01:41:20.135Z,2.40
2022-10-17T01:42:36.742Z,2.70
2022-10-17T01:43:44.575Z,2.63
2022-10-17T01:45:01.885Z,2.70
2022-10-17T01:46:15.775Z,2.50
2022-10-17T01:47:21.537Z,2.83
2022-10-17T01:48:27.344Z,2.80
2022-10-17T01:49:31.699Z,2.97
2022-10-17T01:50:38.174Z,2.83
2022-10-17T01:51:43.060Z,3.10
2022-10-17T01:52:57.123Z,3.00
2022-10-17T01:54:03.189Z,2.80
2022-10-17T01:55:08.840Z,2.60
2022-10-17T01:56:14.202Z,2.90
2022-10-17T01:57:43.856Z,2.73
2022-10-17T01:58:52.979Z,2.90
2022-10-17T01:59:56.578Z,2.70
2022-10-17T02:01:02.952Z,3.00
2022-10-17T02:02:07.678Z,3.00
2022-10-17T02:03:14.067Z,2.80
2022-10-17T02:04:16.437Z,2.83
2022-10-17T02:05:20.583Z,2.73
2022-10-17T02:06:23.222Z,2.83
2022-10-17T02:07:25.144Z,3.10
2022-10-17T02:08:39.948Z,2.80
2022-10-17T02:09:41.758Z,3.00
2022-10-17T02:11:05.791Z,3.00
2022-10-17T02:12:32.760Z,3.07
2022-10-17T02:13:46.034Z,3.23
2022-10-17T02:14:54.714Z,2.80
2022-10-17T02:16:20.688Z,2.80
2022-10-17T02:17:30.952Z,2.80
2022-10-17T02:18:52.741Z,3.00
2022-10-17T02:20:19.308Z,3.00
2022-10-17T02:21:41.846Z,2.90
2022-10-17T02:23:04.115Z,2.97
2022-10-17T02:24:35.063Z,3.00
2022-10-17T02:25:59.332Z,2.87
2022-10-17T02:27:15.197Z,3.10
2022-10-17T02:28:39.696Z,3.07
2022-10-17T02:29:58.979Z,3.00
2022-10-17T02:31:22.721Z,2.83
2022-10-17T02:32:54.931Z,2.90
2022-10-17T02:34:07.285Z,2.77
2022-10-17T02:35:13.123Z,2.80
2022-10-17T02:36:19.749Z,3.27
2022-10-17T02:37:27.493Z,3.17
2022-10-17T02:38:30.682Z,3.07
2022-10-17T02:39:34.848Z,3.03
2022-10-17T02:40:37.270Z,2.33
2022-10-17T02:41:41.001Z,2.90
2022-10-17T02:42:45.310Z,2.50
2022-10-17T02:43:50.030Z,2.57
2022-10-17T02:44:53.489Z,2.33
2022-10-17T02:45:55.881Z,2.80
2022-10-17T02:47:07.193Z,2.83
2022-10-17T02:48:18.768Z,2.87
2022-10-17T02:49:28.290Z,3.30
2022-10-17T02:50:52.445Z,3.10
2022-10-17T02:52:08.275Z,2.90
2022-10-17T02:53:19.952Z,3.17
2022-10-17T02:55:15.376Z,3.27
2022-10-17T02:56:19.193Z,3.13
2022-10-17T02:57:52.992Z,2.83
2022-10-17T02:58:58.619Z,3.20
2022-10-17T03:00:02.111Z,3.00
2022-10-17T03:01:04.947Z,2.93
2022-10-17T03:02:07.000Z,2.77
2022-10-17T03:03:24.941Z,3.03
2022-10-17T03:04:26.542Z,2.90
2022-10-17T03:05:29.668Z,3.00
2022-10-17T03:06:31.035Z,3.00
2022-10-17T03:07:32.461Z,3.10
2022-10-17T03:08:35.488Z,3.13
2022-10-17T03:09:36.966Z,3.20
2022-10-17T03:10:38.404Z,2.87
2022-10-17T03:11:40.497Z,3.10
2022-10-17T03:12:43.205Z,3.30
2022-10-17T03:13:45.409Z,3.00
2022-10-17T03:14:46.835Z,3.20
2022-10-17T03:15:48.271Z,3.13
2022-10-17T03:16:49.680Z,3.13
2022-10-17T03:17:52.662Z,3.30
2022-10-17T03:18:54.142Z,3.43
2022-10-17T03:19:55.953Z,3.43
2022-10-17T03:20:57.371Z,3.20
2022-10-17T03:21:58.803Z,3.10
2022-10-17T03:23:00.537Z,3.03
2022-10-17T03:24:03.108Z,3.37
2022-10-17T03:25:04.869Z,3.03
2022-10-17T03:26:09.453Z,2.80
2022-10-17T03:27:10.987Z,3.33
2022-10-17T03:28:12.674Z,3.07
2022-10-17T03:29:14.513Z,3.20
2022-10-17T03:30:16.263Z,3.20
2022-10-17T03:31:17.834Z,3.20
2022-10-17T03:32:20.821Z,3.43
2022-10-17T03:33:22.831Z,3.37
2022-10-17T03:34:24.469Z,3.53
2022-10-17T03:35:27.342Z,3.50
2022-10-17T03:36:29.161Z,3.17
2022-10-17T03:37:31.154Z,3.30
2022-10-17T03:38:34.491Z,3.47
2022-10-17T03:39:35.916Z,3.40
2022-10-17T03:40:37.959Z,3.37
2022-10-17T03:41:39.534Z,3.57
2022-10-17T03:42:41.355Z,3.20
2022-10-17T03:43:42.840Z,3.17
2022-10-17T03:44:44.308Z,3.33
2022-10-17T03:45:45.726Z,3.50
2022-10-17T03:46:47.109Z,3.57
2022-10-17T03:47:49.478Z,3.47
2022-10-17T03:48:50.908Z,3.60
2022-10-17T03:49:53.734Z,3.47
2022-10-17T03:51:09.605Z,3.30
2022-10-17T03:52:21.233Z,3.30
2022-10-17T03:53:22.693Z,3.20
2022-10-17T03:54:24.372Z,3.13
2022-10-17T03:55:25.913Z,3.20
2022-10-17T03:56:27.780Z,3.50
2022-10-17T03:57:37.079Z,3.40
2022-10-17T03:58:40.483Z,3.30
2022-10-17T03:59:42.151Z,3.80
2022-10-17T04:00:49.211Z,3.40
2022-10-17T04:01:50.972Z,3.37
2022-10-17T04:02:53.776Z,3.40
2022-10-17T04:03:56.482Z,3.60
2022-10-17T04:04:58.027Z,3.80
2022-10-17T04:06:00.953Z,3.30
2022-10-17T04:07:03.550Z,3.60
2022-10-17T04:08:05.449Z,3.40
2022-10-17T04:09:29.484Z,3.43
2022-10-17T04:10:39.656Z,3.40
2022-10-17T04:11:41.385Z,3.57
2022-10-17T04:12:42.902Z,3.53
2022-10-17T04:13:45.413Z,3.17
2022-10-17T04:14:46.810Z,3.73
2022-10-17T04:16:04.698Z,3.23
2022-10-17T04:17:06.297Z,3.90
2022-10-17T04:18:09.236Z,3.30
2022-10-17T04:19:12.813Z,3.60
2022-10-17T04:20:17.485Z,3.50
2022-10-17T04:21:19.336Z,3.00
2022-10-17T04:22:20.918Z,3.47
2022-10-17T04:23:23.064Z,3.83
2022-10-17T04:24:28.842Z,4.10
2022-10-17T04:25:40.002Z,3.90
2022-10-17T04:26:41.831Z,3.70
2022-10-17T04:27:43.488Z,3.67
2022-10-17T04:28:44.911Z,3.97
2022-10-17T04:29:46.579Z,4.00
2022-10-17T04:31:02.561Z,3.93
2022-10-17T04:32:10.087Z,3.90
2022-10-17T04:33:20.597Z,3.77
2022-10-17T04:34:22.153Z,3.53
2022-10-17T04:35:23.674Z,3.67
2022-10-17T04:36:32.137Z,3.67
2022-10-17T04:37:33.964Z,4.00
2022-10-17T04:38:41.347Z,3.80
2022-10-17T04:39:45.117Z,3.63
2022-10-17T04:40:46.811Z,3.90
2022-10-17T04:41:48.386Z,3.70
2022-10-17T04:42:50.057Z,3.70
2022-10-17T04:43:54.917Z,3.77
2022-10-17T04:44:56.534Z,3.47
2022-10-17T04:46:01.321Z,3.90
2022-10-17T04:47:03.135Z,3.90
2022-10-17T04:48:05.070Z,4.17
2022-10-17T04:49:06.521Z,4.00
2022-10-17T04:50:08.542Z,4.30
2022-10-17T04:51:13.862Z,3.63
2022-10-17T04:52:28.919Z,4.30
2022-10-17T04:53:38.058Z,3.87
2022-10-17T04:54:39.697Z,4.30
2022-10-17T04:55:43.934Z,4.50
2022-10-17T04:56:47.092Z,4.37
2022-10-17T04:57:48.539Z,3.90
2022-10-17T04:58:55.160Z,3.90
2022-10-17T04:59:57.284Z,3.60
2022-10-17T05:01:22.871Z,4.23
2022-10-17T05:02:27.574Z,3.77
2022-10-17T05:03:29.882Z,4.10
2022-10-17T05:04:31.517Z,3.90
2022-10-17T05:05:33.052Z,3.97
2022-10-17T05:06:38.066Z,3.83
2022-10-17T05:07:58.100Z,3.80
2022-10-17T05:09:04.487Z,3.93
2022-10-17T05:10:06.481Z,4.00
2022-10-17T05:11:16.909Z,3.87
2022-10-17T05:12:18.304Z,3.53
2022-10-17T05:13:20.663Z,3.97
2022-10-17T05:14:22.502Z,3.53
2022-10-17T05:15:24.563Z,3.60
2022-10-17T05:16:29.011Z,4.30
2022-10-17T05:17:30.770Z,3.83
2022-10-17T05:18:32.184Z,3.90
2022-10-17T05:19:33.574Z,3.97
2022-10-17T05:20:35.429Z,4.07
2022-10-17T05:21:37.461Z,3.93
2022-10-17T05:22:42.093Z,4.50
2022-10-17T05:23:46.090Z,4.30
2022-10-17T05:24:47.713Z,4.33
2022-10-17T05:25:54.634Z,3.77
2022-10-17T05:26:58.298Z,4.13
2022-10-17T05:27:59.825Z,3.80
2022-10-17T05:29:04.643Z,3.77
2022-10-17T05:30:10.626Z,3.80
2022-10-17T05:31:13.606Z,4.47
2022-10-17T05:32:17.042Z,4.23
2022-10-17T05:33:18.643Z,4.20
2022-10-17T05:34:20.385Z,4.57
2022-10-17T05:35:22.382Z,3.90
2022-10-17T05:36:23.831Z,4.23
2022-10-17T05:37:26.091Z,4.17
2022-10-17T05:38:30.357Z,4.50
2022-10-17T05:39:31.885Z,4.40
2022-10-17T05:40:34.928Z,4.00
2022-10-17T05:41:37.126Z,3.50
2022-10-17T05:43:43.213Z,3.87
2022-10-17T05:44:46.057Z,3.97
2022-10-17T05:45:48.929Z,3.70
2022-10-17T05:46:54.556Z,3.70
2022-10-17T05:47:56.235Z,3.77
2022-10-17T05:48:58.035Z,3.90
2022-10-17T05:49:59.390Z,4.30
2022-10-17T05:51:09.881Z,3.60
2022-10-17T05:52:11.739Z,4.33
2022-10-17T05:53:32.071Z,4.23
2022-10-17T05:54:37.048Z,3.87
2022-10-17T05:55:38.612Z,4.20
2022-10-17T05:56:40.257Z,4.13
2022-10-17T05:57:42.089Z,4.47
2022-10-17T05:58:50.904Z,4.70
2022-10-17T06:00:17.054Z,4.13
2022-10-17T06:01:25.562Z,4.30
2022-10-17T06:02:28.271Z,4.50
2022-10-17T06:03:31.616Z,3.90
2022-10-17T06:04:33.999Z,3.80
2022-10-17T06:05:36.762Z,4.57
2022-10-17T06:06:39.928Z,4.23
2022-10-17T06:07:41.604Z,3.83
2022-10-17T06:08:44.122Z,4.33
2022-10-17T06:09:49.347Z,4.10
2022-10-17T06:10:51.354Z,4.43
2022-10-17T06:11:52.742Z,4.03
2022-10-17T06:12:54.766Z,4.30
2022-10-17T06:13:56.262Z,4.20
2022-10-17T06:15:00.079Z,4.23
2022-10-17T06:16:01.940Z,3.80
2022-10-17T06:17:03.580Z,3.60
2022-10-17T06:18:05.606Z,3.87
2022-10-17T06:19:07.054Z,3.63
2022-10-17T06:20:09.256Z,3.60
2022-10-17T06:21:12.070Z,3.83
2022-10-17T06:22:18.471Z,3.20
2022-10-17T06:23:21.210Z,3.60
2022-10-17T06:24:37.523Z,3.67
2022-10-17T06:25:40.122Z,3.73
2022-10-17T06:26:41.642Z,3.40
2022-10-17T06:27:44.487Z,3.63
2022-10-17T06:28:46.733Z,3.67
2022-10-17T06:29:48.480Z,3.67
2022-10-17T06:30:50.177Z,3.77
2022-10-17T06:31:51.784Z,3.80
2022-10-17T06:32:54.660Z,3.73
2022-10-17T06:33:56.191Z,3.60
2022-10-17T06:34:57.622Z,3.63
2022-10-17T06:35:59.943Z,3.47
2022-10-17T06:37:01.344Z,3.43
2022-10-17T06:38:04.604Z,3.80
2022-10-17T06:39:07.116Z,3.97
2022-10-17T06:40:31.774Z,3.60
2022-10-17T06:41:33.993Z,3.63
2022-10-17T06:42:39.722Z,3.60
2022-10-17T06:43:46.309Z,3.70
2022-10-17T06:45:07.133Z,3.50
2022-10-17T06:46:39.125Z,3.97
2022-10-17T06:47:43.049Z,3.33
2022-10-17T06:49:22.870Z,3.63
2022-10-17T06:50:26.605Z,3.57
2022-10-17T06:51:45.389Z,3.67
2022-10-17T06:52:52.058Z,3.80
2022-10-17T06:54:11.794Z,3.70
2022-10-17T06:55:32.631Z,3.67
2022-10-17T06:56:57.217Z,3.30
2022-10-17T06:58:17.555Z,3.50
2022-10-17T06:59:42.833Z,3.40
2022-10-17T07:00:49.438Z,3.40
2022-10-17T07:01:51.913Z,3.37
2022-10-17T07:02:53.339Z,3.40
2022-10-17T07:03:55.417Z,3.00
2022-10-17T07:04:57.533Z,3.00
2022-10-17T07:05:59.122Z,3.43
2022-10-17T07:07:03.036Z,3.10
2022-10-17T07:08:05.696Z,3.37
2022-10-17T07:09:07.334Z,3.70
2022-10-17T07:10:11.331Z,3.40
2022-10-17T07:11:16.704Z,3.07
2022-10-17T07:12:18.251Z,3.30
2022-10-17T07:13:20.904Z,3.60
2022-10-17T07:14:22.402Z,3.67
2022-10-17T07:15:24.085Z,3.40
2022-10-17T07:16:25.432Z,3.53
2022-10-17T07:17:35.389Z,3.30
2022-10-17T07:18:37.350Z,3.13
2022-10-17T07:19:38.898Z,3.30
2022-10-17T07:20:42.547Z,3.50
2022-10-17T07:21:44.123Z,3.27
2022-10-17T07:22:46.565Z,3.20
2022-10-17T07:23:47.980Z,3.30
2022-10-17T07:26:09.503Z,3.27
2022-10-17T07:27:13.669Z,3.37
2022-10-17T07:28:15.939Z,3.47
2022-10-17T07:29:17.547Z,3.03
2022-10-17T07:30:29.030Z,2.90
2022-10-17T07:31:42.258Z,3.07
2022-10-17T07:32:44.267Z,3.27
2022-10-17T07:34:48.308Z,3.33
2022-10-17T07:35:52.191Z,3.00
2022-10-17T07:36:54.206Z,2.87
2022-10-17T07:37:55.610Z,3.13
2022-10-17T07:38:57.213Z,3.10
2022-10-17T07:40:00.263Z,3.00
2022-10-17T07:41:04.751Z,3.17
2022-10-17T07:42:07.753Z,2.93
2022-10-17T07:43:09.551Z,2.93
2022-10-17T07:44:11.894Z,3.00
2022-10-17T07:45:20.103Z,2.90
2022-10-17T07:46:21.673Z,3.20
2022-10-17T07:47:23.278Z,3.00
2022-10-17T07:48:25.682Z,3.30
2022-10-17T07:49:27.248Z,3.47
2022-10-17T07:50:29.253Z,3.37
2022-10-17T07:51:30.686Z,3.47
2022-10-17T07:52:32.415Z,3.10
2022-10-17T07:53:38.613Z,3.03
2022-10-17T07:54:40.832Z,3.20
2022-10-17T07:55:42.881Z,3.27
2022-10-17T07:56:50.239Z,3.17
2022-10-17T07:57:51.657Z,3.10
2022-10-17T07:58:53.787Z,2.90
2022-10-17T07:59:55.300Z,2.97
2022-10-17T08:02:09.209Z,3.40
2022-10-17T08:03:11.429Z,3.00
2022-10-17T08:04:13.019Z,3.30
2022-10-17T08:05:14.440Z,2.97
2022-10-17T08:06:16.213Z,3.40
2022-10-17T08:07:23.033Z,3.43
2022-10-17T08:08:26.980Z,3.43
2022-10-17T08:09:28.354Z,3.00
2022-10-17T08:10:30.025Z,2.93
2022-10-17T08:11:31.507Z,3.10
2022-10-17T08:12:34.358Z,3.20
2022-10-17T08:13:36.739Z,3.10
2022-10-17T08:14:39.500Z,3.30
2022-10-17T08:15:40.994Z,3.20
2022-10-17T08:16:42.888Z,3.00
2022-10-17T08:17:44.235Z,3.10
2022-10-17T08:18:45.716Z,3.07
2022-10-17T08:19:47.085Z,3.20
2022-10-17T08:20:48.680Z,3.17
2022-10-17T08:21:50.335Z,3.23
2022-10-17T08:22:53.354Z,3.30
2022-10-17T08:23:54.936Z,3.43
2022-10-17T08:24:56.307Z,3.23
2022-10-17T08:26:01.883Z,3.20
2022-10-17T08:27:04.831Z,3.40
2022-10-17T08:29:16.689Z,3.23
2022-10-17T08:30:18.242Z,3.13
2022-10-17T08:31:20.571Z,2.90
2022-10-17T08:32:25.724Z,3.23
2022-10-17T08:33:27.090Z,2.90
2022-10-17T08:34:29.098Z,2.77
2022-10-17T08:35:30.477Z,2.97
2022-10-17T08:36:31.966Z,3.37
2022-10-17T08:37:34.257Z,2.93
2022-10-17T08:38:41.435Z,3.27
2022-10-17T08:39:45.214Z,3.33
2022-10-17T08:40:49.509Z,3.23
2022-10-17T08:41:57.095Z,3.47
2022-10-17T08:43:05.715Z,3.10
2022-10-17T08:44:32.008Z,2.93
2022-10-17T08:45:50.703Z,3.13
2022-10-17T08:46:57.044Z,2.93
2022-10-17T08:48:01.322Z,2.80
2022-10-17T08:49:08.735Z,2.90
2022-10-17T08:50:33.666Z,3.10
2022-10-17T08:51:39.835Z,3.03
2022-10-17T08:53:06.201Z,2.90
2022-10-17T08:54:15.239Z,3.10
2022-10-17T08:55:22.920Z,3.10
2022-10-17T08:56:48.869Z,2.70
2022-10-17T08:57:50.814Z,3.27
2022-10-17T08:58:52.879Z,2.90
2022-10-17T08:59:55.167Z,3.07
2022-10-17T09:01:08.010Z,2.93
2022-10-17T09:02:46.327Z,3.60
2022-10-17T09:04:18.017Z,3.40
2022-10-17T09:05:55.286Z,3.00
2022-10-17T09:07:02.586Z,3.30
2022-10-17T09:08:04.026Z,3.20
2022-10-17T09:09:39.255Z,3.37
2022-10-17T09:10:57.391Z,3.07
2022-10-17T09:12:13.611Z,3.00
2022-10-17T09:13:27.066Z,3.13
2022-10-17T09:14:40.844Z,3.20
2022-10-17T09:15:42.236Z,3.27
2022-10-17T09:17:09.335Z,3.10
2022-10-17T09:18:22.145Z,3.27
2022-10-17T09:19:29.838Z,2.87
2022-10-17T09:20:36.580Z,2.80
2022-10-17T09:21:51.567Z,2.87
2022-10-17T09:23:08.486Z,2.80
2022-10-17T09:24:27.920Z,3.00
2022-10-17T09:25:33.447Z,3.27
2022-10-17T09:26:35.034Z,2.83
2022-10-17T09:27:44.399Z,2.70
2022-10-17T09:28:52.373Z,2.67
2022-10-17T09:30:40.183Z,2.77
2022-10-17T09:31:51.865Z,3.00
2022-10-17T09:32:53.960Z,3.23
2022-10-17T09:33:58.006Z,3.10
2022-10-17T09:34:59.420Z,3.27
2022-10-17T09:36:03.378Z,3.33
2022-10-17T09:37:15.041Z,3.30
2022-10-17T09:38:20.063Z,3.23
2022-10-17T09:39:29.155Z,3.00
2022-10-17T09:40:35.356Z,3.43
2022-10-17T09:41:47.549Z,2.90
2022-10-17T09:42:51.408Z,2.80
2022-10-17T09:43:57.115Z,2.80
2022-10-17T09:45:18.523Z,2.73
2022-10-17T09:46:34.204Z,2.90
2022-10-17T09:47:45.815Z,3.30
2022-10-17T09:49:04.780Z,3.20
2022-10-17T09:50:35.038Z,3.30
2022-10-17T09:51:38.989Z,3.33
2022-10-17T09:52:47.581Z,3.20
2022-10-17T09:53:55.108Z,3.20
2022-10-17T09:55:04.018Z,2.90
2022-10-17T09:56:12.807Z,2.77
2022-10-17T09:57:16.007Z,3.30
2022-10-17T09:58:17.546Z,2.90
2022-10-17T09:59:35.329Z,3.43
2022-10-17T10:00:38.522Z,3.10
2022-10-17T10:01:40.057Z,3.20
2022-10-17T10:02:41.501Z,3.33
2022-10-17T10:03:42.894Z,3.00
2022-10-17T10:05:04.157Z,3.10
2022-10-17T10:06:12.523Z,3.00
2022-10-17T10:07:14.083Z,3.23
2022-10-17T10:08:17.711Z,2.97
2022-10-17T10:09:25.888Z,2.90
2022-10-17T10:10:29.537Z,3.17
2022-10-17T10:11:50.825Z,3.57
2022-10-17T10:13:18.329Z,2.90
2022-10-17T10:14:24.376Z,3.20
2022-10-17T10:15:43.737Z,3.50
2022-10-17T10:16:47.438Z,3.30
2022-10-17T10:17:49.199Z,3.10
2022-10-17T10:18:51.754Z,3.50
2022-10-17T10:19:53.892Z,3.77
2022-10-17T10:21:17.744Z,3.03
2022-10-17T10:22:23.536Z,3.17
2022-10-17T10:23:25.208Z,2.77
2022-10-17T10:24:30.839Z,3.47
2022-10-17T10:25:33.759Z,3.00
2022-10-17T10:26:46.682Z,2.87
2022-10-17T10:27:48.165Z,3.10
2022-10-17T10:29:06.479Z,3.03
2022-10-17T10:30:19.022Z,3.30
2022-10-17T10:31:28.661Z,2.90
2022-10-17T10:32:33.809Z,3.33
2022-10-17T10:33:41.785Z,2.70
2022-10-17T10:34:53.266Z,3.20
2022-10-17T10:36:05.167Z,3.10
2022-10-17T10:37:17.827Z,2.87
2022-10-17T10:38:21.142Z,3.40
2022-10-17T10:39:39.929Z,3.00
2022-10-17T10:40:51.038Z,2.73
2022-10-17T10:41:52.820Z,3.27
2022-10-17T10:43:04.871Z,2.80
2022-10-17T10:44:06.454Z,3.10
2022-10-17T10:45:46.407Z,2.90
2022-10-17T10:46:42.965Z,3.10
2022-10-17T10:47:54.924Z,2.80
2022-10-17T10:48:59.618Z,2.83
2022-10-17T10:50:28.872Z,2.97
2022-10-17T10:51:42.598Z,3.00
2022-10-17T10:52:50.640Z,2.90
2022-10-17T10:54:13.030Z,3.00
2022-10-17T10:55:34.384Z,3.27
2022-10-17T10:56:44.088Z,3.22
2022-10-17T10:57:49.173Z,3.15
2022-10-17T10:59:10.406Z,3.20
2022-10-17T11:00:20.740Z,3.23
2022-10-17T11:01:28.333Z,3.20
2022-10-17T11:02:35.841Z,2.57
2022-10-17T11:04:08.077Z,3.10
2022-10-17T11:05:21.858Z,3.45
2022-10-17T11:06:28.460Z,3.45
2022-10-17T11:07:45.854Z,3.50
2022-10-17T11:09:06.314Z,3.50
2022-10-17T11:10:28.212Z,3.50
2022-10-17T11:11:39.223Z,3.22
2022-10-17T11:12:55.477Z,3.60
2022-10-17T11:14:03.772Z,4.13
2022-10-17T11:15:17.230Z,4.43
2022-10-17T11:16:26.328Z,3.80
2022-10-17T11:17:36.374Z,3.13
2022-10-17T11:18:50.390Z,3.25
2022-10-17T11:20:20.061Z,3.35
2022-10-17T11:22:49.777Z,3.97
2022-10-17T11:24:05.650Z,3.47
2022-10-17T11:25:12.682Z,3.60
2022-10-17T11:26:27.856Z,3.28
2022-10-17T11:27:30.774Z,3.40
2022-10-17T11:28:32.571Z,3.20
2022-10-17T11:29:42.120Z,3.35
2022-10-17T11:30:56.466Z,3.13
2022-10-17T11:32:03.686Z,3.33
2022-10-17T11:33:06.068Z,3.58
2022-10-17T11:34:19.546Z,3.33
2022-10-17T11:35:36.546Z,3.55
2022-10-17T11:36:42.660Z,4.22
2022-10-17T11:37:49.990Z,3.40
2022-10-17T11:39:04.174Z,3.10
2022-10-17T11:40:38.386Z,2.90
2022-10-17T11:41:44.945Z,3.85
2022-10-17T11:43:01.651Z,3.67
2022-10-17T11:44:13.388Z,3.25
2022-10-17T11:45:20.277Z,3.20
2022-10-17T11:46:24.577Z,3.33
2022-10-17T11:47:34.651Z,3.95
2022-10-17T11:48:42.378Z,4.00
2022-10-17T11:52:57.306Z,3.20
2022-10-17T11:54:15.097Z,3.60
2022-10-17T11:55:19.844Z,3.03
2022-10-17T11:56:58.403Z,3.17
2022-10-17T11:58:30.618Z,3.38
2022-10-17T12:00:00.462Z,4.35
2022-10-17T12:01:19.747Z,3.60
2022-10-17T12:02:47.389Z,3.30
2022-10-17T12:03:57.074Z,3.53
2022-10-17T12:05:22.377Z,3.33
2022-10-17T12:06:35.480Z,3.20
2022-10-17T12:07:45.780Z,3.00
2022-10-17T12:08:58.958Z,3.53
2022-10-17T12:10:20.942Z,3.30
2022-10-17T12:11:54.071Z,3.03
2022-10-17T12:12:55.704Z,3.15
2022-10-17T12:13:57.190Z,2.78
2022-10-17T12:15:13.896Z,2.95
2022-10-17T12:16:35.585Z,3.00
2022-10-17T12:17:40.474Z,3.05
2022-10-17T12:18:41.953Z,3.20
2022-10-17T12:19:43.728Z,3.15
2022-10-17T12:20:57.314Z,3.38
2022-10-17T12:22:20.860Z,3.20
2022-10-17T12:23:27.465Z,3.50
2022-10-17T12:24:44.015Z,3.10
2022-10-17T12:25:56.959Z,3.03
2022-10-17T12:27:23.842Z,2.47
2022-10-17T12:28:37.994Z,3.10
2022-10-17T12:29:39.468Z,3.20
2022-10-17T12:30:57.578Z,3.10
2022-10-17T12:32:12.574Z,3.13
2022-10-17T12:33:23.741Z,3.15
2022-10-17T12:34:25.506Z,3.33
2022-10-17T12:35:28.798Z,3.33
2022-10-17T12:36:30.454Z,3.03
2022-10-17T12:37:50.861Z,3.38
2022-10-17T12:39:18.326Z,3.10
2022-10-17T12:40:37.898Z,2.70
2022-10-17T12:41:39.643Z,2.60
2022-10-17T12:42:50.042Z,2.90
2022-10-17T12:43:55.220Z,3.05
2022-10-17T12:44:56.868Z,3.05
2022-10-17T12:46:00.370Z,3.10
2022-10-17T12:47:11.176Z,2.70
2022-10-17T12:48:12.883Z,2.92
2022-10-17T12:49:43.746Z,3.20
2022-10-17T12:51:30.810Z,3.15
2022-10-17T12:52:32.404Z,3.17
2022-10-17T12:54:07.102Z,2.80
2022-10-17T12:55:14.410Z,2.65
2022-10-17T12:56:31.241Z,2.80
2022-10-17T12:57:33.113Z,2.88
2022-10-17T12:58:35.806Z,3.33
2022-10-17T12:59:37.661Z,2.92
2022-10-17T13:01:22.449Z,3.15
2022-10-17T13:02:20.692Z,3.10
2022-10-17T13:03:28.846Z,3.20
2022-10-17T13:04:31.784Z,2.92
2022-10-17T13:05:37.015Z,3.35
2022-10-17T13:06:48.267Z,3.03
2022-10-17T13:07:51.787Z,2.78
2022-10-17T13:09:06.683Z,3.63
2022-10-17T13:10:22.299Z,3.20
2022-10-17T13:11:32.360Z,3.20
2022-10-17T13:12:41.002Z,3.38
2022-10-17T13:13:52.442Z,3.20
2022-10-17T13:14:55.010Z,2.75
2022-10-17T13:15:56.512Z,3.03
2022-10-17T13:17:03.496Z,3.45
2022-10-17T13:18:05.317Z,2.92
2022-10-17T13:19:15.165Z,2.60
2022-10-17T13:20:27.527Z,3.17
2022-10-17T13:21:31.909Z,2.70
2022-10-17T13:22:33.567Z,2.95
2022-10-17T13:23:36.931Z,3.20
2022-10-17T13:24:40.069Z,3.00
2022-10-17T13:25:41.718Z,2.78
2022-10-17T13:26:45.945Z,2.65
2022-10-17T13:27:49.149Z,3.60
2022-10-17T13:30:32.520Z,3.15
2022-10-17T13:31:42.612Z,3.50
2022-10-17T13:32:45.593Z,3.05
2022-10-17T13:33:47.122Z,3.40
2022-10-17T13:35:07.206Z,3.38
2022-10-17T13:36:15.674Z,2.67
2022-10-17T13:37:17.150Z,2.53
2022-10-17T13:38:28.821Z,2.95
2022-10-17T13:41:10.879Z,3.03
2022-10-17T13:42:27.487Z,2.47
2022-10-17T13:43:31.879Z,2.40
2022-10-17T13:44:34.714Z,2.90
2022-10-17T13:45:38.154Z,2.92
2022-10-17T13:46:40.045Z,2.83
2022-10-17T13:47:41.637Z,2.75
2022-10-17T13:48:43.565Z,2.70
2022-10-17T13:49:45.390Z,3.17
2022-10-17T13:50:50.368Z,3.13
2022-10-17T13:51:53.981Z,2.97
2022-10-17T13:53:17.753Z,3.00
2022-10-17T13:54:37.919Z,3.10
2022-10-17T13:55:39.296Z,3.05
2022-10-17T13:56:40.806Z,3.05
2022-10-17T13:57:42.262Z,2.88
2022-10-17T13:58:45.365Z,3.00
2022-10-17T13:59:50.131Z,3.38
2022-10-17T14:00:52.729Z,3.08
2022-10-17T14:01:55.852Z,3.30
2022-10-17T14:02:57.752Z,3.10
2022-10-17T14:04:20.198Z,2.97
2022-10-17T14:05:23.876Z,3.20
2022-10-17T14:06:30.129Z,2.92
2022-10-17T14:07:58.051Z,3.22
2022-10-17T14:09:02.599Z,3.20
2022-10-17T14:10:06.346Z,2.65
2022-10-17T14:11:23.887Z,2.95
2022-10-17T14:12:25.353Z,3.10
2022-10-17T14:13:34.010Z,2.90
2022-10-17T14:14:52.004Z,3.40
2022-10-17T14:16:03.958Z,3.20
2022-10-17T14:17:21.769Z,3.17
2022-10-17T14:18:36.568Z,3.38
2022-10-17T14:19:38.349Z,2.80
2022-10-17T14:21:28.772Z,3.05
2022-10-17T14:22:15.799Z,3.45
2022-10-17T14:23:36.673Z,2.97
2022-10-17T14:24:39.684Z,2.63
2022-10-17T14:25:41.466Z,3.30
2022-10-17T14:27:30.798Z,3.00
2022-10-17T14:28:32.503Z,2.97
2022-10-17T14:29:51.684Z,2.90
2022-10-17T14:30:57.447Z,3.05
2022-10-17T14:32:11.249Z,3.35
2022-10-17T14:33:24.481Z,2.60
2022-10-17T14:34:31.100Z,2.92
2022-10-17T14:35:41.862Z,2.72
2022-10-17T14:36:52.431Z,3.20
2022-10-17T14:37:58.863Z,3.17
2022-10-17T14:39:01.953Z,3.13
2022-10-17T14:40:05.852Z,2.80
2022-10-17T14:42:40.125Z,2.80
2022-10-17T14:43:41.936Z,3.30
2022-10-17T14:44:52.903Z,2.60
2022-10-17T14:45:58.311Z,2.90
2022-10-17T14:47:30.275Z,2.60
2022-10-17T14:48:29.278Z,2.83
2022-10-17T14:49:39.395Z,3.17
2022-10-17T14:50:43.437Z,2.70
2022-10-17T14:52:28.853Z,2.90
2022-10-17T14:53:30.828Z,2.67
2022-10-17T14:54:36.059Z,2.73
2022-10-17T14:55:40.016Z,3.03
2022-10-17T14:56:42.878Z,3.23
2022-10-17T14:57:46.495Z,2.80
2022-10-17T14:58:47.853Z,2.90
2022-10-17T14:59:54.551Z,3.07
2022-10-17T15:00:58.071Z,3.00
2022-10-17T15:01:59.465Z,3.43
2022-10-17T15:03:00.918Z,3.00
2022-10-17T15:04:03.118Z,2.70
2022-10-17T15:05:06.480Z,2.67
2022-10-17T15:06:23.442Z,2.90
2022-10-17T15:07:24.945Z,3.13
2022-10-17T15:08:26.409Z,2.93
2022-10-17T15:09:28.956Z,3.20
2022-10-17T15:10:37.584Z,2.83
2022-10-17T15:11:39.553Z,2.80
2022-10-17T15:12:51.014Z,2.50
2022-10-17T15:14:00.398Z,2.70
2022-10-17T15:15:01.894Z,2.80
2022-10-17T15:16:06.963Z,3.00
2022-10-17T15:17:33.098Z,2.97
2022-10-17T15:18:34.542Z,3.17
2022-10-17T15:19:36.291Z,2.77
2022-10-17T15:20:38.532Z,3.00
2022-10-17T15:21:43.407Z,3.00